Time;durP1;ratioP1;P1;durP2;ratioP2;P2;SDS_P1;SDS_P2;PMS_P1;PMS_P2;Temp;Humidity;BMP_temperature;BMP_pressure;BME280_temperature;BME280_humidity;BME280_pressure;Samples;Min_cycle;Max_cycle;Signal;HPM_P1;HPM_P2
2021/08/18 00:00:47;;;;;;;8.20;5.25;;;;;;;22.55;54.46;101409.19;5015654;28;20029;-60
2021/08/18 00:03:14;;;;;;;8.82;5.70;;;;;;;22.48;54.73;101402.78;4998182;28;20040;-60
2021/08/18 00:05:40;;;;;;;13.27;6.65;;;;;;;22.43;53.83;101397.06;5015585;28;20433;-61
2021/08/18 00:08:08;;;;;;;8.55;5.88;;;;;;;22.45;53.82;101408.63;5015832;28;20022;-60
2021/08/18 00:10:34;;;;;;;9.68;5.88;;;;;;;22.44;53.69;101411.56;5015228;28;20026;-60
2021/08/18 00:12:59;;;;;;;11.98;6.53;;;;;;;22.39;54.38;101401.19;5014271;28;20022;-60
2021/08/18 00:15:25;;;;;;;8.50;6.40;;;;;;;22.45;54.75;101400.44;5014491;28;20022;-60
2021/08/18 00:17:51;;;;;;;10.13;6.50;;;;;;;22.47;54.66;101401.06;5014186;28;20021;-61
2021/08/18 00:20:17;;;;;;;9.30;5.32;;;;;;;22.48;53.83;101408.25;5014436;28;20405;-60
2021/08/18 00:22:43;;;;;;;12.70;6.10;;;;;;;22.51;54.36;101404.28;5014252;28;20029;-61
2021/08/18 00:25:09;;;;;;;9.68;5.80;;;;;;;22.50;54.44;101403.41;5013811;28;20108;-61
2021/08/18 00:27:34;;;;;;;9.73;6.18;;;;;;;22.50;54.00;101403.41;5014292;28;20053;-62
2021/08/18 00:30:00;;;;;;;9.73;5.78;;;;;;;22.51;53.73;101398.81;5014013;28;20034;-61
2021/08/18 00:32:26;;;;;;;11.55;5.80;;;;;;;22.47;53.85;101392.88;5013963;28;20030;-61
2021/08/18 00:34:51;;;;;;;8.88;5.80;;;;;;;22.48;54.71;101399.19;5013057;28;20022;-60
2021/08/18 00:37:16;;;;;;;9.70;5.57;;;;;;;22.46;54.26;101396.66;5013683;28;20026;-61
2021/08/18 00:39:42;;;;;;;9.52;5.93;;;;;;;22.50;54.81;101391.69;4996201;28;20030;-61
2021/08/18 00:42:07;;;;;;;8.18;5.25;;;;;;;22.52;54.21;101395.06;4996798;28;20471;-61
2021/08/18 00:44:34;;;;;;;6.63;4.82;;;;;;;22.50;53.94;101397.97;5014025;28;20528;-60
2021/08/18 00:47:00;;;;;;;8.05;5.15;;;;;;;22.51;54.40;101398.81;4996098;28;20076;-60
2021/08/18 00:49:28;;;;;;;9.93;6.13;;;;;;;22.52;54.10;101395.91;5013674;28;20030;-60
2021/08/18 00:51:54;;;;;;;11.57;6.43;;;;;;;22.54;54.19;101401.16;5013672;28;20026;-61
2021/08/18 00:54:20;;;;;;;8.18;5.30;;;;;;;22.56;55.02;101399.06;5013757;28;20026;-60
2021/08/18 00:56:46;;;;;;;8.48;6.30;;;;;;;22.58;54.56;101386.91;4996332;28;20462;-60
2021/08/18 00:59:13;;;;;;;9.52;5.78;;;;;;;22.58;54.79;101388.81;5013811;28;20030;-61
2021/08/18 01:01:39;;;;;;;9.05;5.57;;;;;;;22.58;54.76;101392.38;5013663;28;20053;-61
2021/08/18 01:04:04;;;;;;;8.82;5.25;;;;;;;22.57;54.45;101387.13;5013381;28;20065;-61
2021/08/18 01:06:30;;;;;;;9.90;5.85;;;;;;;22.52;54.50;101376.78;4996221;28;20055;-62
2021/08/18 01:08:55;;;;;;;11.95;6.72;;;;;;;22.51;54.30;101385.16;5013431;28;20026;-61
2021/08/18 01:11:21;;;;;;;9.35;5.57;;;;;;;22.51;54.12;101388.75;5013605;28;20022;-61
2021/08/18 01:13:46;;;;;;;10.65;5.97;;;;;;;22.55;54.64;101394.66;4995799;28;20029;-61
2021/08/18 01:16:11;;;;;;;8.85;5.57;;;;;;;22.50;55.05;101387.03;5013362;28;20153;-61
2021/08/18 01:18:38;;;;;;;9.18;5.50;;;;;;;22.44;54.82;101381.53;5013256;28;20033;-62
2021/08/18 01:21:04;;;;;;;11.23;5.50;;;;;;;22.46;54.20;101398.53;5014327;28;20044;-61
2021/08/18 01:23:29;;;;;;;7.82;5.38;;;;;;;22.41;55.18;101404.59;5013325;28;20026;-63
2021/08/18 01:25:56;;;;;;;9.15;5.70;;;;;;;22.41;54.25;101393.69;5013557;28;20105;-63
2021/08/18 01:28:24;;;;;;;11.20;6.28;;;;;;;22.38;54.52;101398.66;5013510;28;20030;-62
2021/08/18 01:30:50;;;;;;;9.95;6.45;;;;;;;22.34;54.82;101390.00;4995973;28;20097;-63
2021/08/18 01:33:16;;;;;;;9.23;6.20;;;;;;;22.38;55.43;101393.22;5013181;28;20026;-61
2021/08/18 01:35:44;;;;;;;9.30;6.32;;;;;;;22.35;55.42;101405.34;4995584;28;20026;-62
2021/08/18 01:38:11;;;;;;;10.20;6.00;;;;;;;22.38;54.44;101402.25;5013472;28;20026;-61
2021/08/18 01:40:38;;;;;;;9.18;5.47;;;;;;;22.39;54.55;101400.38;5013338;28;20378;-61
2021/08/18 01:43:04;;;;;;;8.45;5.70;;;;;;;22.38;55.13;101394.06;5013652;28;20483;-61
2021/08/18 01:45:35;;;;;;;11.77;6.80;;;;;;;22.40;54.99;101396.59;4996636;28;20022;-61
2021/08/18 01:48:12;;;;;;;9.00;5.55;;;;;;;22.41;55.21;101403.75;5016693;28;20100;-61
2021/08/18 01:50:37;;;;;;;11.02;7.03;;;;;;;22.44;55.02;101400.63;5016478;28;20026;-61
2021/08/18 01:53:03;;;;;;;14.18;7.05;;;;;;;22.45;55.24;101400.44;5016945;28;20152;-61
2021/08/18 01:55:30;;;;;;;12.82;7.60;;;;;;;22.48;55.24;101393.72;5016558;28;20029;-60
2021/08/18 01:57:57;;;;;;;15.40;8.43;;;;;;;22.49;54.77;101396.28;5016439;28;20030;-60
2021/08/18 02:00:23;;;;;;;12.00;7.38;;;;;;;22.44;54.63;101385.09;4998865;28;20025;-61
2021/08/18 02:02:49;;;;;;;13.10;7.15;;;;;;;22.44;55.68;101379.63;5016323;28;20080;-60
2021/08/18 02:05:14;;;;;;;11.82;7.18;;;;;;;22.54;55.36;101392.97;4995450;28;20062;-61
2021/08/18 02:07:40;;;;;;;13.75;7.72;;;;;;;22.60;54.39;101400.38;4996323;28;20455;-61
2021/08/18 02:10:09;;;;;;;12.13;7.53;;;;;;;22.60;54.76;101393.03;4997058;28;20022;-61
2021/08/18 02:12:36;;;;;;;11.82;7.90;;;;;;;22.66;54.68;101396.06;4996743;28;20110;-61
2021/08/18 02:15:10;;;;;;;13.38;7.35;;;;;;;22.67;54.45;101392.31;4996775;28;20041;-61
2021/08/18 02:17:35;;;;;;;11.93;7.75;;;;;;;22.68;55.50;101392.09;4996804;28;20414;-60
2021/08/18 02:20:02;;;;;;;12.60;8.40;;;;;;;22.69;54.61;101387.50;4997008;28;20106;-61
2021/08/18 02:22:27;;;;;;;14.55;7.75;;;;;;;22.67;55.06;101379.47;4995555;28;20054;-61
2021/08/18 02:24:52;;;;;;;14.75;7.85;;;;;;;22.72;54.57;101392.56;4995413;28;20109;-60
2021/08/18 02:27:18;;;;;;;12.10;7.90;;;;;;;22.74;55.18;101395.94;4996664;28;20026;-62
2021/08/18 02:29:43;;;;;;;14.68;9.05;;;;;;;22.72;55.27;101395.31;4996499;28;20613;-60
2021/08/18 02:32:09;;;;;;;13.55;9.00;;;;;;;22.74;54.19;101393.22;4996675;28;20114;-60
2021/08/18 02:34:34;;;;;;;15.18;8.90;;;;;;;22.74;54.25;101387.75;4996455;28;20505;-60
2021/08/18 02:37:00;;;;;;;17.85;10.38;;;;;;;22.73;54.98;101386.91;4996171;28;20022;-60
2021/08/18 02:39:25;;;;;;;16.20;9.93;;;;;;;22.76;54.26;101386.50;4996632;28;20060;-60
2021/08/18 02:41:50;;;;;;;16.15;9.38;;;;;;;22.79;55.20;101390.72;4996527;28;20023;-61
2021/08/18 02:44:16;;;;;;;24.73;11.50;;;;;;;22.76;55.04;101388.38;4996357;28;20030;-60
2021/08/18 02:46:41;;;;;;;16.90;9.63;;;;;;;22.82;54.67;101395.81;4996319;28;20023;-60
2021/08/18 02:49:06;;;;;;;15.82;10.00;;;;;;;22.83;54.56;101392.03;4995931;28;20499;-60
2021/08/18 02:51:32;;;;;;;19.17;11.07;;;;;;;22.83;54.80;101398.38;4996177;28;20027;-60
2021/08/18 02:53:57;;;;;;;17.42;10.25;;;;;;;22.85;54.30;101398.16;4996516;28;20030;-60
2021/08/18 02:56:22;;;;;;;17.13;11.07;;;;;;;22.85;55.15;101387.22;4995841;28;20028;-60
2021/08/18 02:58:48;;;;;;;23.77;10.50;;;;;;;22.88;54.95;101389.56;4995573;28;20026;-61
2021/08/18 03:01:13;;;;;;;16.80;10.23;;;;;;;22.89;54.26;101386.63;4996258;28;20450;-60
2021/08/18 03:03:38;;;;;;;17.65;10.57;;;;;;;22.90;54.47;101392.94;4994452;28;20058;-60
2021/08/18 03:06:04;;;;;;;21.65;12.30;;;;;;;22.87;55.21;101382.41;4995590;28;20100;-61
2021/08/18 03:08:29;;;;;;;18.48;10.65;;;;;;;22.88;55.06;101384.09;4994283;28;20073;-60
2021/08/18 03:10:54;;;;;;;16.65;10.07;;;;;;;22.79;54.45;101363.41;4995438;28;20030;-61
2021/08/18 03:13:20;;;;;;;16.40;10.20;;;;;;;22.90;54.27;101387.47;4995976;28;20084;-61
2021/08/18 03:15:45;;;;;;;16.38;10.32;;;;;;;22.91;55.10;101380.97;4995761;28;20034;-61
2021/08/18 03:18:10;;;;;;;19.83;10.90;;;;;;;22.93;55.00;101387.09;4995654;28;20102;-60
2021/08/18 03:20:36;;;;;;;16.75;10.45;;;;;;;22.92;54.09;101385.41;4995488;28;20026;-62
2021/08/18 03:23:01;;;;;;;17.60;10.15;;;;;;;22.91;54.99;101387.31;4995763;28;20037;-60
2021/08/18 03:25:27;;;;;;;14.90;9.02;;;;;;;22.94;55.17;101389.66;4995191;28;20469;-62
2021/08/18 03:27:52;;;;;;;17.00;9.85;;;;;;;22.93;54.00;101387.94;4995525;28;20439;-60
2021/08/18 03:30:17;;;;;;;15.50;9.52;;;;;;;22.93;55.18;101392.56;4995365;28;20018;-61
2021/08/18 03:32:43;;;;;;;17.90;10.52;;;;;;;22.92;54.36;101388.16;4995519;28;20367;-60
2021/08/18 03:35:09;;;;;;;18.92;11.30;;;;;;;22.92;54.04;101393.63;4995567;28;20096;-61
2021/08/18 03:37:34;;;;;;;16.15;10.30;;;;;;;22.93;54.12;101393.41;4995859;28;20026;-60
2021/08/18 03:39:59;;;;;;;15.88;9.88;;;;;;;22.92;54.72;101394.44;4994983;28;20085;-60
2021/08/18 03:42:25;;;;;;;21.15;11.02;;;;;;;22.93;55.26;101395.28;4995224;28;20033;-60
2021/08/18 03:44:51;;;;;;;18.05;9.70;;;;;;;22.90;54.38;101384.75;4994868;28;20475;-60
2021/08/18 03:47:16;;;;;;;16.38;10.25;;;;;;;22.93;55.19;101387.09;4995152;28;20026;-61
2021/08/18 03:49:41;;;;;;;16.45;10.25;;;;;;;22.94;54.19;101388.78;4994984;28;20162;-61
2021/08/18 03:52:07;;;;;;;16.38;9.52;;;;;;;22.93;54.42;101389.81;4994681;28;20038;-60
2021/08/18 03:54:33;;;;;;;19.88;11.68;;;;;;;22.94;54.76;101394.25;4995741;28;20030;-60
2021/08/18 03:56:58;;;;;;;18.38;10.15;;;;;;;22.94;55.22;101392.38;4994917;28;20383;-60
2021/08/18 03:59:24;;;;;;;20.50;11.75;;;;;;;22.94;54.54;101391.53;4994963;28;20030;-60
2021/08/18 04:01:49;;;;;;;18.40;11.38;;;;;;;22.95;54.08;101385.84;4994552;28;20022;-60
2021/08/18 04:04:15;;;;;;;19.60;10.98;;;;;;;22.95;54.68;101387.72;5002847;28;20049;-61
2021/08/18 04:06:40;;;;;;;20.30;10.90;;;;;;;22.96;55.28;101390.28;5014453;28;20068;-60
2021/08/18 04:09:05;;;;;;;17.60;10.82;;;;;;;22.96;54.23;101383.97;5014126;28;20032;-62
2021/08/18 04:11:31;;;;;;;16.17;10.50;;;;;;;22.96;55.13;101392.16;5013990;28;20022;-60
2021/08/18 04:13:56;;;;;;;21.95;11.60;;;;;;;22.94;54.81;101383.31;5014128;28;20026;-60
2021/08/18 04:16:21;;;;;;;16.52;9.98;;;;;;;22.96;54.39;101395.75;5014283;28;20063;-60
2021/08/18 04:18:47;;;;;;;19.30;10.82;;;;;;;22.93;54.84;101385.22;5014920;28;20025;-60
2021/08/18 04:21:13;;;;;;;16.98;10.23;;;;;;;22.97;54.60;101388.41;5013923;28;20022;-60
2021/08/18 04:23:38;;;;;;;17.98;11.10;;;;;;;22.98;55.08;101399.13;5014137;28;20086;-60
2021/08/18 04:26:04;;;;;;;18.80;10.63;;;;;;;22.99;54.31;101391.78;5014313;28;20109;-60
2021/08/18 04:28:29;;;;;;;17.58;10.55;;;;;;;22.99;54.01;101397.25;5014176;28;20374;-61
2021/08/18 04:30:55;;;;;;;17.70;9.80;;;;;;;22.98;55.01;101390.94;5013930;28;20026;-60
2021/08/18 04:33:20;;;;;;;21.17;11.25;;;;;;;23.00;54.19;101401.69;5013968;28;20025;-61
2021/08/18 04:35:46;;;;;;;18.45;11.15;;;;;;;23.00;54.99;101398.94;5013939;28;20378;-60
2021/08/18 04:38:11;;;;;;;22.00;11.80;;;;;;;23.00;54.37;101398.94;5013909;28;20121;-60
2021/08/18 04:40:36;;;;;;;21.27;11.35;;;;;;;23.01;54.18;101395.16;5013853;28;20429;-61
2021/08/18 04:43:02;;;;;;;18.80;11.15;;;;;;;23.01;55.16;101393.28;5014314;28;20036;-61
2021/08/18 04:45:27;;;;;;;25.40;12.63;;;;;;;23.03;54.04;101398.56;5013906;28;20021;-60
2021/08/18 04:47:53;;;;;;;19.88;11.93;;;;;;;23.04;55.24;101395.59;5013894;28;20382;-60
2021/08/18 04:50:19;;;;;;;17.98;11.68;;;;;;;23.04;54.48;101394.75;5013878;28;20034;-60
2021/08/18 04:52:45;;;;;;;18.58;11.25;;;;;;;23.05;54.96;101396.47;5013558;28;20034;-60
2021/08/18 04:55:12;;;;;;;18.48;11.38;;;;;;;23.05;54.28;101391.00;5014655;28;20363;-60
2021/08/18 04:57:37;;;;;;;17.45;10.63;;;;;;;23.06;54.09;101387.22;5013772;28;20037;-61
2021/08/18 05:00:04;;;;;;;17.48;10.90;;;;;;;23.07;54.21;101389.75;5013815;28;20025;-61
2021/08/18 05:02:29;;;;;;;20.58;11.35;;;;;;;23.09;55.35;101392.28;4995877;28;20048;-60
2021/08/18 05:04:54;;;;;;;20.92;11.68;;;;;;;23.09;54.61;101386.81;4992433;28;20062;-60
2021/08/18 05:07:20;;;;;;;18.52;11.63;;;;;;;23.11;54.55;101390.22;4993900;28;20049;-60
2021/08/18 05:09:45;;;;;;;20.77;10.85;;;;;;;23.10;54.70;101381.16;4994047;28;20023;-61
2021/08/18 05:12:11;;;;;;;18.38;10.35;;;;;;;23.13;54.14;101378.03;4993950;28;20058;-60
2021/08/18 05:14:36;;;;;;;15.63;10.30;;;;;;;23.14;54.36;101389.81;4994393;28;20106;-60
2021/08/18 05:17:02;;;;;;;19.08;10.27;;;;;;;23.16;54.97;101382.25;4994004;28;20101;-60
2021/08/18 05:19:27;;;;;;;18.23;10.30;;;;;;;23.15;55.29;101380.56;4993780;28;20364;-60
2021/08/18 05:21:52;;;;;;;18.00;11.18;;;;;;;23.17;55.20;101373.03;4997512;28;20022;-61
2021/08/18 05:24:18;;;;;;;22.38;10.25;;;;;;;23.17;54.21;101378.50;4997957;28;20026;-60
2021/08/18 05:26:43;;;;;;;20.08;10.07;;;;;;;23.19;54.38;101376.41;4997512;28;20526;-61
2021/08/18 05:29:08;;;;;;;19.42;9.23;;;;;;;23.24;54.24;101390.31;4997968;28;20482;-60
2021/08/18 05:31:34;;;;;;;14.88;8.90;;;;;;;23.18;54.19;101377.44;4997335;28;20541;-61
2021/08/18 05:33:59;;;;;;;14.93;9.13;;;;;;;23.22;54.83;101386.09;4997430;28;20430;-61
2021/08/18 05:36:24;;;;;;;14.43;8.85;;;;;;;23.22;55.20;101381.47;4997799;28;20030;-61
2021/08/18 05:38:50;;;;;;;13.40;8.32;;;;;;;23.19;55.18;101381.88;4997769;28;20025;-61
2021/08/18 05:41:15;;;;;;;15.20;8.27;;;;;;;23.23;55.06;101388.63;4997414;28;20030;-61
2021/08/18 05:43:40;;;;;;;14.35;8.38;;;;;;;23.25;55.08;101385.69;4997437;28;20378;-60
2021/08/18 05:46:06;;;;;;;12.43;8.07;;;;;;;23.26;54.18;101387.38;4996103;28;20505;-61
2021/08/18 05:48:31;;;;;;;13.80;8.52;;;;;;;23.28;54.44;101386.16;4996399;28;20030;-61
2021/08/18 05:50:57;;;;;;;13.40;7.93;;;;;;;23.27;54.73;101386.34;4995635;28;20117;-61
2021/08/18 05:53:22;;;;;;;13.38;7.70;;;;;;;23.32;55.14;101390.16;4997202;28;20078;-61
2021/08/18 05:55:48;;;;;;;16.77;8.15;;;;;;;23.34;54.79;101389.97;4997219;28;20023;-60
2021/08/18 05:58:14;;;;;;;12.45;8.02;;;;;;;23.37;54.34;101390.41;4997561;28;20233;-60
2021/08/18 06:00:40;;;;;;;14.38;8.48;;;;;;;23.39;54.69;101388.38;4997083;28;20070;-60
2021/08/18 06:03:05;;;;;;;13.85;8.73;;;;;;;23.39;54.79;101382.06;4995765;28;20452;-60
2021/08/18 06:05:31;;;;;;;10.52;7.28;;;;;;;23.39;55.10;101382.06;5013742;28;20470;-60
2021/08/18 06:07:56;;;;;;;13.13;8.55;;;;;;;23.37;54.19;101386.81;5015505;28;20331;-60
2021/08/18 06:10:22;;;;;;;13.77;8.35;;;;;;;23.32;55.07;101381.09;5016612;28;20105;-60
2021/08/18 06:12:47;;;;;;;15.75;8.85;;;;;;;23.32;54.83;101378.38;5016426;28;20022;-60
2021/08/18 06:15:13;;;;;;;14.98;8.35;;;;;;;23.28;55.43;101386.16;5016626;28;20454;-60
2021/08/18 06:17:38;;;;;;;15.82;8.27;;;;;;;23.23;54.77;101390.53;5016462;28;20022;-60
2021/08/18 06:20:04;;;;;;;14.70;8.43;;;;;;;23.19;55.40;101384.59;5016581;28;20556;-61
2021/08/18 06:22:30;;;;;;;13.27;8.85;;;;;;;23.24;54.62;101394.94;5014801;28;20363;-60
2021/08/18 06:24:57;;;;;;;14.70;8.93;;;;;;;23.24;54.61;101390.31;5016061;28;20025;-60
2021/08/18 06:27:23;;;;;;;16.42;8.55;;;;;;;23.27;55.37;101394.53;5015992;28;20033;-61
2021/08/18 06:29:49;;;;;;;14.07;7.85;;;;;;;23.29;55.50;101385.09;5015436;28;20021;-61
2021/08/18 06:32:14;;;;;;;13.82;7.85;;;;;;;23.32;54.43;101389.31;5013402;28;20041;-61
2021/08/18 06:34:39;;;;;;;10.63;7.07;;;;;;;23.32;54.53;101390.16;5016448;28;20038;-61
2021/08/18 06:37:06;;;;;;;11.32;7.78;;;;;;;23.33;54.87;101391.88;5016121;28;20099;-61
2021/08/18 06:39:32;;;;;;;10.95;7.38;;;;;;;23.32;54.51;101397.50;5015749;28;20421;-61
2021/08/18 06:41:59;;;;;;;12.50;8.05;;;;;;;23.30;54.49;101397.72;5016373;28;20025;-61
2021/08/18 06:44:25;;;;;;;10.00;7.82;;;;;;;23.28;55.38;101397.09;5015638;28;20036;-62
2021/08/18 06:46:50;;;;;;;12.95;7.85;;;;;;;23.26;55.33;101396.41;5016094;28;20053;-62
2021/08/18 06:49:15;;;;;;;12.20;8.57;;;;;;;23.22;55.35;101389.69;5015525;28;20030;-62
2021/08/18 06:51:41;;;;;;;13.95;8.15;;;;;;;23.19;54.75;101390.06;5015820;28;20022;-62
2021/08/18 06:54:06;;;;;;;16.42;9.48;;;;;;;23.19;55.11;101395.53;5015914;28;20378;-62
2021/08/18 06:56:32;;;;;;;13.23;7.70;;;;;;;23.20;54.70;101405.41;5015384;28;20106;-62
2021/08/18 06:58:57;;;;;;;12.95;8.38;;;;;;;23.18;55.04;101404.78;5015414;28;20030;-61
2021/08/18 07:01:22;;;;;;;11.38;7.32;;;;;;;23.17;55.76;101394.91;5015495;28;20371;-62
2021/08/18 07:03:48;;;;;;;9.32;6.80;;;;;;;23.16;55.49;101398.66;5015469;28;20422;-62
2021/08/18 07:06:13;;;;;;;11.65;6.80;;;;;;;23.16;54.87;101395.94;5015667;28;20370;-62
2021/08/18 07:08:38;;;;;;;10.57;6.63;;;;;;;23.16;55.67;101396.78;5015340;28;20033;-62
2021/08/18 07:11:04;;;;;;;10.65;6.50;;;;;;;23.16;54.71;101394.03;5014984;28;20099;-61
2021/08/18 07:13:29;;;;;;;12.77;6.38;;;;;;;23.18;55.34;101391.94;5015831;28;20030;-61
2021/08/18 07:15:55;;;;;;;8.45;6.32;;;;;;;23.25;54.72;101400.22;5015246;28;20030;-60
2021/08/18 07:18:22;;;;;;;10.90;6.88;;;;;;;23.30;55.10;101397.72;5015155;28;20474;-60
2021/08/18 07:20:47;;;;;;;14.88;6.63;;;;;;;23.37;54.53;101390.41;5014811;28;20026;-61
2021/08/18 07:23:13;;;;;;;11.77;6.88;;;;;;;23.50;55.17;101401.50;5015122;28;20022;-61
2021/08/18 07:25:38;;;;;;;10.57;6.82;;;;;;;23.57;54.25;101393.31;5014838;28;20026;-61
2021/08/18 07:28:04;;;;;;;11.20;6.28;;;;;;;23.64;55.21;101391.50;5015213;28;20041;-61
2021/08/18 07:30:29;;;;;;;8.85;6.22;;;;;;;23.69;54.80;101397.19;5015061;28;20026;-61
2021/08/18 07:32:54;;;;;;;11.10;6.93;;;;;;;23.73;55.20;101407.53;5014633;28;20037;-60
2021/08/18 07:35:20;;;;;;;10.75;6.57;;;;;;;23.75;55.19;101405.47;5015256;28;20101;-61
2021/08/18 07:37:47;;;;;;;8.57;5.55;;;;;;;23.77;55.17;101402.50;5013804;28;20050;-61
2021/08/18 07:40:13;;;;;;;8.80;6.20;;;;;;;23.76;54.95;101393.44;5014934;28;20045;-60
2021/08/18 07:42:38;;;;;;;9.10;6.22;;;;;;;23.80;54.17;101404.00;5014909;28;20449;-60
2021/08/18 07:45:04;;;;;;;8.65;6.07;;;;;;;23.89;54.65;101405.53;5014651;28;20022;-60
2021/08/18 07:47:29;;;;;;;11.65;6.80;;;;;;;23.97;54.89;101403.47;5014432;28;20056;-60
2021/08/18 07:49:55;;;;;;;11.15;7.00;;;;;;;24.06;54.14;101395.94;5014759;28;20072;-60
2021/08/18 07:52:20;;;;;;;10.43;6.53;;;;;;;24.16;54.14;101407.38;5014365;28;20025;-61
2021/08/18 07:54:46;;;;;;;13.35;7.82;;;;;;;24.23;53.69;101408.28;5013266;28;20116;-61
2021/08/18 07:57:13;;;;;;;12.60;7.05;;;;;;;24.31;54.25;101410.81;5014558;28;20026;-61
2021/08/18 07:59:38;;;;;;;12.75;7.03;;;;;;;24.39;53.88;101413.38;5014128;28;20030;-61
2021/08/18 08:02:03;;;;;;;14.25;8.18;;;;;;;24.47;53.61;101415.94;5012905;28;20088;-60
2021/08/18 08:04:29;;;;;;;12.57;8.07;;;;;;;24.52;54.39;101418.91;5014154;28;20056;-61
2021/08/18 08:06:54;;;;;;;13.27;8.05;;;;;;;24.57;54.30;101415.53;5014384;28;20367;-60
2021/08/18 08:09:20;;;;;;;13.40;7.75;;;;;;;24.62;54.24;101418.53;5014350;28;20045;-60
2021/08/18 08:11:46;;;;;;;13.55;8.32;;;;;;;24.67;53.78;101414.09;5014196;28;20029;-60
2021/08/18 08:14:11;;;;;;;15.20;8.98;;;;;;;24.73;54.02;101421.50;5014378;28;20351;-60
2021/08/18 08:16:36;;;;;;;14.80;8.13;;;;;;;24.80;53.43;101418.78;5014812;28;20424;-61
2021/08/18 08:19:02;;;;;;;15.63;8.82;;;;;;;24.83;53.69;101410.16;5014265;28;20022;-60
2021/08/18 08:21:28;;;;;;;15.57;8.23;;;;;;;24.90;53.42;101414.59;5013114;28;20049;-61
2021/08/18 08:23:53;;;;;;;16.55;9.50;;;;;;;25.03;53.60;101412.94;5014950;28;20040;-60
2021/08/18 08:26:18;;;;;;;14.48;8.80;;;;;;;25.14;53.42;101410.41;5014079;28;20476;-60
2021/08/18 08:28:44;;;;;;;12.65;8.50;;;;;;;25.25;53.29;101411.66;5012854;28;20120;-60
2021/08/18 08:31:09;;;;;;;16.05;9.02;;;;;;;25.39;52.58;101418.84;5012747;28;20459;-61
2021/08/18 08:33:35;;;;;;;14.63;9.60;;;;;;;25.47;52.96;101418.66;5014195;28;20091;-61
2021/08/18 08:36:00;;;;;;;15.77;9.77;;;;;;;25.53;53.11;101419.72;5014299;28;20033;-60
2021/08/18 08:38:25;;;;;;;12.25;8.27;;;;;;;25.58;53.11;101418.03;5012454;28;20434;-60
2021/08/18 08:40:51;;;;;;;12.45;8.63;;;;;;;25.67;52.91;101424.13;5013903;28;20026;-61
2021/08/18 08:43:22;;;;;;;11.95;8.13;;;;;;;25.71;52.50;101417.97;5013911;28;20026;-61
2021/08/18 08:45:48;;;;;;;14.35;7.63;;;;;;;25.72;52.78;101422.44;5013681;28;20030;-61
2021/08/18 08:48:17;;;;;;;11.18;7.60;;;;;;;25.74;52.37;101420.31;5014161;28;20026;-61
2021/08/18 08:50:44;;;;;;;17.73;9.43;;;;;;;25.81;52.53;101423.91;5012353;28;20026;-60
2021/08/18 08:53:09;;;;;;;13.82;7.78;;;;;;;25.94;52.22;101426.59;5013839;28;20069;-60
2021/08/18 08:55:34;;;;;;;13.60;7.05;;;;;;;26.04;52.44;101417.94;5014963;28;20037;-61
2021/08/18 08:58:00;;;;;;;14.05;7.57;;;;;;;26.05;51.70;101417.69;5016327;28;20026;-61
2021/08/18 09:00:25;;;;;;;14.65;7.47;;;;;;;26.15;51.73;101417.28;5018309;28;20442;-60
2021/08/18 09:03:10;;;;;;;12.15;7.38;;;;;;;26.23;51.42;101425.28;5017955;28;20018;-61
2021/08/18 09:05:37;;;;;;;15.52;7.22;;;;;;;26.24;52.32;101415.16;5017266;28;20406;-61
2021/08/18 09:08:02;;;;;;;9.93;6.07;;;;;;;26.24;51.86;101415.16;5017986;28;20026;-61
2021/08/18 09:10:28;;;;;;;11.75;6.55;;;;;;;26.30;51.68;101419.78;5017551;28;20029;-61
2021/08/18 09:13:17;;;;;;;10.75;6.90;;;;;;;26.36;51.03;101405.13;5016307;28;20026;-61
2021/08/18 09:15:44;;;;;;;10.35;7.07;;;;;;;26.54;51.36;101417.13;5017903;28;20502;-61
2021/08/18 09:18:09;;;;;;;11.48;7.65;;;;;;;26.68;50.43;101408.78;5016173;28;20032;-62
2021/08/18 09:20:39;;;;;;;10.82;7.60;;;;;;;26.82;50.27;101408.53;5017346;28;20125;-61
2021/08/18 09:23:06;;;;;;;8.52;6.13;;;;;;;26.97;51.11;101406.28;5017620;28;20061;-62
2021/08/18 09:25:36;;;;;;;10.75;6.22;;;;;;;27.17;50.26;101407.00;5016333;28;20471;-61
2021/08/18 09:28:01;;;;;;;10.98;6.43;;;;;;;27.41;49.56;101405.34;5017312;28;20030;-61
2021/08/18 09:30:27;;;;;;;9.20;6.00;;;;;;;27.64;49.03;101401.94;5015754;28;20488;-62
2021/08/18 09:32:55;;;;;;;9.30;5.75;;;;;;;27.84;48.93;101409.97;5017039;28;20053;-62
2021/08/18 09:35:22;;;;;;;7.55;5.43;;;;;;;27.85;48.70;101409.78;5015764;28;20041;-61
2021/08/18 09:38:04;;;;;;;7.07;5.47;;;;;;;27.79;49.23;101399.66;5017080;28;20041;-61
2021/08/18 09:47:14;;;;;;;7.35;5.45;;;;;;;27.88;49.18;101403.81;5017533;28;20113;-61
2021/08/18 09:49:39;;;;;;;9.73;4.88;;;;;;;27.93;48.49;101406.72;5016823;28;20057;-61
2021/08/18 09:52:04;;;;;;;7.28;4.63;;;;;;;27.93;48.27;101401.22;5016710;28;20432;-62
2021/08/18 09:54:37;;;;;;;5.07;3.92;;;;;;;27.95;48.89;101404.56;5016531;28;20022;-61
2021/08/18 09:57:07;;;;;;;7.20;4.40;;;;;;;27.91;48.88;101406.09;5016776;28;20030;-62
2021/08/18 09:59:33;;;;;;;6.30;4.32;;;;;;;27.86;48.25;101405.97;5016480;28;20482;-62
2021/08/18 10:01:59;;;;;;;8.93;4.35;;;;;;;27.84;48.18;101402.56;5016239;28;20025;-61
2021/08/18 10:04:24;;;;;;;6.47;4.03;;;;;;;27.81;48.70;101404.94;5014929;28;20062;-61
2021/08/18 10:06:50;;;;;;;6.75;4.18;;;;;;;27.84;48.36;101397.06;5014825;28;20037;-61
2021/08/18 10:09:15;;;;;;;4.45;3.58;;;;;;;28.05;48.43;101410.44;5015335;28;20036;-61
2021/08/18 10:11:41;;;;;;;6.85;3.70;;;;;;;28.14;48.20;101409.03;5016287;28;20128;-62
2021/08/18 10:14:08;;;;;;;5.90;3.05;;;;;;;28.22;47.48;101400.47;5016368;28;20042;-62
2021/08/18 10:16:34;;;;;;;4.57;3.53;;;;;;;28.24;46.80;101398.31;5016381;28;20030;-62
2021/08/18 10:19:05;;;;;;;6.60;3.33;;;;;;;28.22;47.23;101394.97;5016565;28;20041;-62
2021/08/18 10:21:32;;;;;;;8.98;3.42;;;;;;;28.21;47.27;101393.28;5014785;28;20018;-61
2021/08/18 10:24:03;;;;;;;4.05;3.45;;;;;;;28.22;47.60;101400.47;4998992;28;20553;-62
2021/08/18 10:26:35;;;;;;;6.70;3.28;;;;;;;28.17;47.71;101391.19;5015138;28;20040;-61
2021/08/18 10:29:19;;;;;;;3.67;2.50;;;;;;;28.13;46.81;101390.84;5016497;28;20466;-61
2021/08/18 10:31:45;;;;;;;4.20;3.25;;;;;;;28.15;46.86;101399.69;4999341;28;20046;-61
2021/08/18 10:34:23;;;;;;;3.58;2.72;;;;;;;28.16;47.36;101387.63;5016048;28;20030;-60
2021/08/18 10:36:58;;;;;;;4.25;3.47;;;;;;;28.10;46.38;101399.56;5015837;28;20389;-60
2021/08/18 10:39:27;;;;;;;5.13;3.17;;;;;;;27.97;47.39;101391.44;5016206;28;20441;-61
2021/08/18 10:42:09;;;;;;;6.00;3.88;;;;;;;27.91;47.31;101395.09;5015828;28;20476;-62
2021/08/18 10:44:48;;;;;;;6.67;4.37;;;;;;;27.97;47.31;101387.81;5016097;28;20026;-60
2021/08/18 10:47:22;;;;;;;5.00;3.67;;;;;;;27.99;46.26;101389.28;5015747;28;20268;-61
2021/08/18 10:49:51;;;;;;;6.60;3.67;;;;;;;27.97;46.25;101388.66;5015436;28;20025;-61
2021/08/18 10:52:29;;;;;;;6.28;3.08;;;;;;;27.98;47.22;101386.72;5015382;28;20030;-62
2021/08/18 10:55:09;;;;;;;4.93;3.70;;;;;;;27.93;46.63;101386.59;5015679;28;20540;-62
2021/08/18 10:57:44;;;;;;;6.50;4.63;;;;;;;27.94;46.78;101385.53;5015438;28;20498;-62
2021/08/18 11:00:10;;;;;;;5.95;4.10;;;;;;;27.91;47.37;101375.81;5014436;28;20433;-61
2021/08/18 11:02:53;;;;;;;7.15;4.38;;;;;;;27.89;46.89;101375.19;5015589;28;20111;-62
2021/08/18 11:05:24;;;;;;;10.10;4.28;;;;;;;27.91;47.07;101375.81;5013811;28;20037;-61
2021/08/18 11:08:17;;;;;;;5.75;4.10;;;;;;;28.01;47.10;101369.75;5014030;28;20048;-62
2021/08/18 11:11:03;;;;;;;6.43;4.45;;;;;;;28.25;46.16;101371.59;5015019;28;20385;-61
2021/08/18 11:13:55;;;;;;;6.60;3.90;;;;;;;28.53;45.39;101368.25;5015222;28;20021;-62
2021/08/18 11:16:31;;;;;;;5.90;4.32;;;;;;;28.85;46.02;101362.28;5015132;28;20406;-61
2021/08/18 11:18:59;;;;;;;9.05;4.50;;;;;;;28.99;46.04;101362.88;5014581;28;20066;-61
2021/08/18 11:21:29;;;;;;;6.03;5.07;;;;;;;29.03;44.78;101358.59;5015168;28;20378;-61